createdAt,value
2023-01-11T00:01:22.953Z,-86
2023-01-11T00:03:51.455Z,-85
2023-01-11T00:06:20.049Z,-85
2023-01-11T00:08:48.612Z,-86
2023-01-11T00:11:18.364Z,-86
2023-01-11T00:13:48.298Z,-86
2023-01-11T00:16:16.848Z,-85
2023-01-11T00:18:45.362Z,-86
2023-01-11T00:21:14.946Z,-86
2023-01-11T00:23:43.506Z,-86
2023-01-11T00:26:14.539Z,-85
2023-01-11T00:28:43.451Z,-85
2023-01-11T00:31:13.345Z,-85
2023-01-11T00:33:41.858Z,-85
2023-01-11T00:36:11.343Z,-86
2023-01-11T00:38:47.121Z,-85
2023-01-11T00:41:36.474Z,-85
2023-01-11T00:44:23.873Z,-85
2023-01-11T00:47:11.209Z,-86
2023-01-11T00:49:39.642Z,-85
2023-01-11T00:52:10.162Z,-85
2023-01-11T00:54:40.407Z,-85
2023-01-11T00:57:10.084Z,-85
2023-01-11T00:59:40.701Z,-85
2023-01-11T01:02:12.104Z,-85
2023-01-11T01:04:41.125Z,-86
2023-01-11T01:07:11.776Z,-85
2023-01-11T01:09:40.345Z,-85
2023-01-11T01:12:09.583Z,-85
2023-01-11T01:14:37.392Z,-84
2023-01-11T01:17:09.938Z,-82
2023-01-11T01:19:40.664Z,-85
2023-01-11T01:22:10.259Z,-85
2023-01-11T01:24:39.206Z,-86
2023-01-11T01:27:07.945Z,-85
2023-01-11T01:29:37.905Z,-85
2023-01-11T01:32:06.902Z,-85
2023-01-11T01:34:37.933Z,-85
2023-01-11T01:37:07.578Z,-86
2023-01-11T01:39:36.677Z,-85
2023-01-11T01:42:07.667Z,-85
2023-01-11T01:45:09.402Z,-85
2023-01-11T01:47:49.209Z,-85
2023-01-11T01:50:30.842Z,-85
2023-01-11T01:53:05.585Z,-85
2023-01-11T01:55:39.423Z,-84
2023-01-11T01:58:17.847Z,-84
2023-01-11T02:00:48.277Z,-84
2023-01-11T02:03:22.608Z,-85
2023-01-11T02:05:55.635Z,-85
2023-01-11T02:08:34.286Z,-85
2023-01-11T02:11:04.659Z,-84
2023-01-11T02:13:46.332Z,-85
2023-01-11T02:16:16.137Z,-85
2023-01-11T02:18:45.768Z,-85
2023-01-11T02:21:27.620Z,-85
2023-01-11T02:24:36.871Z,-85
2023-01-11T02:27:35.429Z,-86
2023-01-11T02:30:20.813Z,-85
2023-01-11T02:33:03.044Z,-85
2023-01-11T02:35:44.699Z,-85
2023-01-11T02:38:24.764Z,-85
2023-01-11T02:41:06.762Z,-85
2023-01-11T02:44:03.935Z,-84
2023-01-11T02:46:45.343Z,-84
2023-01-11T02:49:28.095Z,-84
2023-01-11T02:52:01.936Z,-86
2023-01-11T02:54:33.004Z,-86
2023-01-11T02:57:04.000Z,-86
2023-01-11T02:59:36.634Z,-85
2023-01-11T03:02:06.736Z,-85
2023-01-11T03:04:37.865Z,-84
2023-01-11T03:07:31.200Z,-84
2023-01-11T03:10:18.442Z,-84
2023-01-11T03:13:05.891Z,-84
2023-01-11T03:16:18.884Z,-84
2023-01-11T03:19:01.366Z,-84
2023-01-11T03:21:48.629Z,-84
2023-01-11T03:24:31.742Z,-86
2023-01-11T03:27:14.622Z,-85
2023-01-11T03:29:50.926Z,-85
2023-01-11T03:32:29.743Z,-85
2023-01-11T03:35:19.577Z,-85
2023-01-11T03:37:56.696Z,-85
2023-01-11T03:40:31.620Z,-85
2023-01-11T03:43:12.303Z,-85
2023-01-11T03:45:49.199Z,-85
2023-01-11T03:48:23.095Z,-85
2023-01-11T03:50:56.383Z,-85
2023-01-11T03:53:27.776Z,-85
2023-01-11T03:56:00.023Z,-84
2023-01-11T03:58:30.952Z,-85
2023-01-11T04:01:00.713Z,-85
2023-01-11T04:03:29.462Z,-85
2023-01-11T04:06:03.367Z,-85
2023-01-11T04:08:32.296Z,-85
2023-01-11T04:11:01.314Z,-84
2023-01-11T04:13:29.829Z,-85
2023-01-11T04:15:58.323Z,-85
2023-01-11T04:18:26.820Z,-85
2023-01-11T04:20:55.354Z,-85
2023-01-11T04:23:25.383Z,-85
2023-01-11T04:25:54.503Z,-85
2023-01-11T04:28:23.053Z,-85
2023-01-11T04:30:51.596Z,-85
2023-01-11T04:33:20.160Z,-85
2023-01-11T04:35:49.986Z,-84
2023-01-11T04:38:18.934Z,-84
2023-01-11T04:40:49.449Z,-84
2023-01-11T04:43:16.910Z,-85
2023-01-11T04:45:45.656Z,-84
2023-01-11T04:48:14.120Z,-84
2023-01-11T04:50:42.631Z,-85
2023-01-11T04:53:11.108Z,-85
2023-01-11T04:55:40.059Z,-82
2023-01-11T04:58:10.002Z,-81
2023-01-11T05:00:38.471Z,-85
2023-01-11T05:03:07.007Z,-85
2023-01-11T05:05:35.523Z,-84
2023-01-11T05:08:04.070Z,-85
2023-01-11T05:10:33.890Z,-84
2023-01-11T05:13:02.394Z,-85
2023-01-11T05:15:32.391Z,-85
2023-01-11T05:18:01.060Z,-85
2023-01-11T05:20:29.574Z,-85
2023-01-11T05:22:58.039Z,-85
2023-01-11T05:25:26.554Z,-85
2023-01-11T05:27:55.179Z,-85
2023-01-11T05:30:23.626Z,-85
2023-01-11T05:32:53.774Z,-85
2023-01-11T05:35:22.614Z,-85
2023-01-11T05:37:51.270Z,-84
2023-01-11T05:40:20.055Z,-85
2023-01-11T05:42:48.624Z,-85
2023-01-11T05:45:32.996Z,-84
2023-01-11T05:48:03.263Z,-85
2023-01-11T05:50:31.796Z,-85
2023-01-11T05:53:00.261Z,-84
2023-01-11T05:55:28.794Z,-84
2023-01-11T05:57:57.246Z,-85
2023-01-11T06:00:26.190Z,-85
2023-01-11T06:02:54.930Z,-84
2023-01-11T06:05:24.902Z,-85
2023-01-11T06:07:55.260Z,-85
2023-01-11T06:10:23.847Z,-85
2023-01-11T06:13:15.130Z,-85
2023-01-11T06:15:43.701Z,-85
2023-01-11T06:18:12.291Z,-85
2023-01-11T06:20:42.521Z,-85
2023-01-11T06:23:11.184Z,-85
2023-01-11T06:25:39.706Z,-85
2023-01-11T06:28:08.236Z,-85
2023-01-11T06:30:36.867Z,-85
2023-01-11T06:33:07.002Z,-85
2023-01-11T06:35:39.938Z,-85
2023-01-11T06:38:12.830Z,-84
2023-01-11T06:40:43.082Z,-85
2023-01-11T06:43:11.939Z,-85
2023-01-11T06:45:41.227Z,-85
2023-01-11T06:48:10.058Z,-85
2023-01-11T06:50:38.688Z,-85
2023-01-11T06:53:07.644Z,-85
2023-01-11T06:55:37.550Z,-85
2023-01-11T06:58:06.039Z,-85
2023-01-11T07:00:34.672Z,-84
2023-01-11T07:03:05.153Z,-84
2023-01-11T07:05:35.635Z,-84
2023-01-11T07:08:04.685Z,-85
2023-01-11T07:10:33.299Z,-84
2023-01-11T07:13:08.982Z,-84
2023-01-11T07:15:38.060Z,-85
2023-01-11T07:18:06.673Z,-85
2023-01-11T07:20:35.186Z,-85
2023-01-11T07:23:03.665Z,-84
2023-01-11T07:25:33.020Z,-88
2023-01-11T07:28:06.275Z,-88
2023-01-11T07:30:55.336Z,-88
2023-01-11T07:33:25.156Z,-87
2023-01-11T07:35:54.594Z,-88
2023-01-11T07:38:24.137Z,-88
2023-01-11T07:40:52.780Z,-86
2023-01-11T07:43:23.606Z,-88
2023-01-11T07:45:54.316Z,-87
2023-01-11T07:48:27.059Z,-87
2023-01-11T07:50:56.313Z,-87
2023-01-11T07:53:26.724Z,-87
2023-01-11T07:55:57.035Z,-87
2023-01-11T07:58:27.206Z,-87
2023-01-11T08:00:55.794Z,-87
2023-01-11T08:03:24.335Z,-86
2023-01-11T08:05:54.354Z,-87
2023-01-11T08:08:23.232Z,-87
2023-01-11T08:11:12.049Z,-88
2023-01-11T08:13:59.223Z,-87
2023-01-11T08:16:28.415Z,-87
2023-01-11T08:18:56.967Z,-87
2023-01-11T08:21:25.497Z,-87
2023-01-11T08:23:55.017Z,-87
2023-01-11T08:26:25.113Z,-87
2023-01-11T08:28:56.318Z,-87
2023-01-11T08:31:26.260Z,-87
2023-01-11T08:33:54.879Z,-88
2023-01-11T08:36:24.591Z,-87
2023-01-11T08:38:56.440Z,-88
2023-01-11T08:41:25.606Z,-88
2023-01-11T08:43:55.922Z,-85
2023-01-11T08:46:24.477Z,-83
2023-01-11T08:48:53.710Z,-83
2023-01-11T08:51:22.103Z,-84
2023-01-11T08:53:52.940Z,-83
2023-01-11T08:56:21.420Z,-83
2023-01-11T08:58:49.900Z,-83
2023-01-11T09:01:19.905Z,-83
2023-01-11T09:03:48.372Z,-84
2023-01-11T09:06:18.935Z,-82
2023-01-11T09:08:47.827Z,-82
2023-01-11T09:11:30.369Z,-81
2023-01-11T09:13:58.791Z,-81
2023-01-11T09:16:28.803Z,-83
2023-01-11T09:18:57.270Z,-83
2023-01-11T09:21:25.891Z,-83
2023-01-11T09:23:54.348Z,-83
2023-01-11T09:26:22.840Z,-82
2023-01-11T09:28:51.754Z,-81
2023-01-11T09:31:20.278Z,-83
2023-01-11T09:33:50.129Z,-82
2023-01-11T09:36:21.844Z,-82
2023-01-11T09:38:53.024Z,-82
2023-01-11T09:41:41.653Z,-82
2023-01-11T09:44:18.987Z,-82
2023-01-11T09:46:54.572Z,-82
2023-01-11T09:49:31.454Z,-82
2023-01-11T09:52:26.209Z,-83
2023-01-11T09:54:54.672Z,-82
2023-01-11T09:57:40.867Z,-83
2023-01-11T10:00:23.945Z,-82
2023-01-11T10:03:18.182Z,-82
2023-01-11T10:06:02.752Z,-82
2023-01-11T10:18:29.452Z,-82
2023-01-11T10:18:48.787Z,-82
2023-01-11T10:21:26.641Z,-82
2023-01-11T10:24:06.973Z,-82
2023-01-11T10:26:41.661Z,-83
2023-01-11T10:29:39.819Z,-82
2023-01-11T10:32:53.189Z,-83
2023-01-11T10:35:45.796Z,-83
2023-01-11T10:38:42.744Z,-82
2023-01-11T10:41:26.606Z,-82
2023-01-11T10:44:11.789Z,-82
2023-01-11T10:46:46.394Z,-82
2023-01-11T10:49:43.321Z,-82
2023-01-11T10:52:35.077Z,-82
2023-01-11T10:55:14.113Z,-82
2023-01-11T10:58:03.334Z,-82
2023-01-11T11:00:43.175Z,-82
2023-01-11T11:03:59.481Z,-82
2023-01-11T11:06:43.374Z,-82
2023-01-11T11:09:25.011Z,-82
2023-01-11T11:12:01.131Z,-83
2023-01-11T11:14:42.663Z,-81
2023-01-11T11:17:24.544Z,-82
2023-01-11T11:19:54.391Z,-80
2023-01-11T11:22:22.864Z,-81
2023-01-11T11:25:00.644Z,-81
2023-01-11T11:27:40.794Z,-81
2023-01-11T11:30:16.100Z,-83
2023-01-11T11:32:56.094Z,-81
2023-01-11T11:35:38.860Z,-81
2023-01-11T11:38:07.865Z,-81
2023-01-11T11:40:38.494Z,-83
2023-01-11T11:43:23.362Z,-82
2023-01-11T11:45:57.596Z,-82
2023-01-11T11:48:29.382Z,-81
2023-01-11T11:51:01.834Z,-82
2023-01-11T11:53:43.683Z,-82
2023-01-11T11:56:25.439Z,-82
2023-01-11T11:58:57.592Z,-82
2023-01-11T12:01:31.671Z,-83
2023-01-11T12:04:05.172Z,-83
2023-01-11T12:06:33.637Z,-85
2023-01-11T12:09:05.216Z,-85
2023-01-11T12:11:38.808Z,-83
2023-01-11T12:14:20.602Z,-83
2023-01-11T12:16:49.141Z,-85
2023-01-11T12:19:30.375Z,-87
2023-01-11T12:22:20.009Z,-87
2023-01-11T12:25:03.471Z,-86
2023-01-11T12:27:43.845Z,-85
2023-01-11T12:30:24.762Z,-85
2023-01-11T12:33:23.522Z,-85
2023-01-11T12:36:03.842Z,-91
2023-01-11T12:38:49.307Z,-90
2023-01-11T12:42:14.416Z,-90
2023-01-11T12:45:17.657Z,-91
2023-01-11T12:48:32.922Z,-90
2023-01-11T12:51:25.474Z,-90
2023-01-11T12:54:28.714Z,-90
2023-01-11T12:57:16.051Z,-91
2023-01-11T13:00:23.140Z,-89
2023-01-11T13:03:51.360Z,-88
2023-01-11T13:06:35.493Z,-89
2023-01-11T13:09:16.734Z,-88
2023-01-11T13:11:53.623Z,-89
2023-01-11T13:14:49.991Z,-90
2023-01-11T13:17:33.034Z,-92
2023-01-11T13:20:26.471Z,-90
2023-01-11T13:23:04.794Z,-91
2023-01-11T13:25:48.388Z,-91
2023-01-11T13:28:34.396Z,-91
2023-01-11T13:31:09.384Z,-92
2023-01-11T13:33:58.147Z,-92
2023-01-11T13:36:34.596Z,-92
2023-01-11T13:39:28.277Z,-92
2023-01-11T13:42:11.603Z,-93
2023-01-11T13:44:55.394Z,-92
2023-01-11T13:47:35.607Z,-89
2023-01-11T13:50:13.568Z,-91
2023-01-11T13:53:04.042Z,-92
2023-01-11T13:55:45.359Z,-92
2023-01-11T13:58:25.534Z,-92
2023-01-11T14:01:01.707Z,-91
2023-01-11T14:03:42.828Z,-91
2023-01-11T14:06:42.607Z,-91
2023-01-11T14:09:40.095Z,-91
2023-01-11T14:12:26.401Z,-92
2023-01-11T14:15:20.825Z,-91
2023-01-11T14:18:28.617Z,-91
2023-01-11T14:21:11.358Z,-93
2023-01-11T14:23:52.741Z,-90
2023-01-11T14:26:58.164Z,-93
2023-01-11T14:30:10.393Z,-91
2023-01-11T14:37:19.014Z,-93
2023-01-11T14:40:18.117Z,-93
2023-01-11T14:43:37.213Z,-92
2023-01-11T14:47:55.612Z,-92
2023-01-11T15:03:47.289Z,-94
2023-01-11T15:07:29.757Z,-93
2023-01-11T15:10:08.934Z,-91
2023-01-11T15:17:36.423Z,-93
2023-01-11T15:25:05.236Z,-93
2023-01-11T15:28:08.337Z,-92
2023-01-11T15:34:49.252Z,-92
2023-01-11T15:53:06.134Z,-93
2023-01-11T16:01:10.999Z,-93
2023-01-11T16:05:06.111Z,-94
2023-01-11T16:42:42.775Z,-93
2023-01-11T16:49:58.056Z,-92
2023-01-11T18:10:56.684Z,-88
2023-01-11T18:13:34.665Z,-89
2023-01-11T18:16:04.954Z,-89
2023-01-11T18:18:43.604Z,-86
2023-01-11T18:21:51.744Z,-88
2023-01-11T18:24:30.635Z,-88
2023-01-11T18:27:30.179Z,-89
2023-01-11T18:30:06.401Z,-89
2023-01-11T18:32:42.291Z,-90
2023-01-11T18:35:19.241Z,-90
2023-01-11T18:37:51.371Z,-90
2023-01-11T18:40:21.516Z,-89
2023-01-11T18:42:54.709Z,-89
2023-01-11T18:45:25.047Z,-90
2023-01-11T18:47:53.977Z,-89
2023-01-11T18:50:24.036Z,-89
2023-01-11T18:52:52.540Z,-89
2023-01-11T18:55:21.521Z,-89
2023-01-11T18:57:51.460Z,-88
2023-01-11T19:00:21.168Z,-87
2023-01-11T19:05:20.190Z,-88
2023-01-11T19:07:51.595Z,-87
2023-01-11T19:10:24.417Z,-87
2023-01-11T19:12:54.484Z,-86
2023-01-11T19:15:22.986Z,-87
2023-01-11T19:17:51.585Z,-87
2023-01-11T19:20:20.431Z,-87
2023-01-11T19:22:49.148Z,-87
2023-01-11T19:25:18.131Z,-89
2023-01-11T19:27:46.698Z,-88
2023-01-11T19:30:18.672Z,-86
2023-01-11T19:32:52.989Z,-89
2023-01-11T19:35:23.667Z,-90
2023-01-11T19:37:52.996Z,-89
2023-01-11T19:40:21.716Z,-90
2023-01-11T19:42:52.527Z,-90
2023-01-11T19:45:22.893Z,-91
2023-01-11T19:47:51.549Z,-92
2023-01-11T19:50:20.485Z,-91
2023-01-11T19:52:49.536Z,-91
2023-01-11T19:55:18.763Z,-92
2023-01-11T19:57:48.168Z,-90
2023-01-11T20:00:19.022Z,-90
2023-01-11T20:02:49.216Z,-90
2023-01-11T20:05:18.238Z,-90
2023-01-11T20:07:46.907Z,-90
2023-01-11T20:10:15.696Z,-90
2023-01-11T20:12:44.287Z,-91
2023-01-11T20:15:13.499Z,-90
2023-01-11T20:17:42.269Z,-90
2023-01-11T20:20:15.172Z,-89
2023-01-11T20:22:45.801Z,-92
2023-01-11T20:25:14.954Z,-89
2023-01-11T20:27:43.630Z,-90
2023-01-11T20:30:13.338Z,-89
2023-01-11T20:32:42.621Z,-88
2023-01-11T20:35:12.919Z,-89
2023-01-11T20:37:41.599Z,-89
2023-01-11T20:40:14.249Z,-89
2023-01-11T20:42:43.489Z,-90
2023-01-11T20:45:13.096Z,-89
2023-01-11T20:47:41.770Z,-90
2023-01-11T20:50:12.890Z,-89
2023-01-11T20:52:41.517Z,-89
2023-01-11T20:55:11.251Z,-89
2023-01-11T20:57:39.864Z,-89
2023-01-11T21:02:38.954Z,-89
2023-01-11T21:05:09.224Z,-87
2023-01-11T21:07:39.242Z,-89
2023-01-11T21:10:10.188Z,-89
2023-01-11T21:12:41.690Z,-90
2023-01-11T21:15:11.233Z,-89
2023-01-11T21:17:39.872Z,-90
2023-01-11T21:20:10.223Z,-89
2023-01-11T21:22:40.287Z,-89
2023-01-11T21:25:10.581Z,-89
2023-01-11T21:27:39.163Z,-89
2023-01-11T21:30:09.699Z,-89
2023-01-11T21:32:38.377Z,-89
2023-01-11T21:35:07.889Z,-89
2023-01-11T21:37:36.555Z,-88
2023-01-11T21:40:08.142Z,-88
2023-01-11T21:42:36.865Z,-88
2023-01-11T21:45:06.920Z,-89
2023-01-11T21:47:35.488Z,-89
2023-01-11T21:50:04.393Z,-89
2023-01-11T21:52:32.974Z,-89
2023-01-11T21:55:01.691Z,-88
2023-01-11T21:57:31.800Z,-88
2023-01-11T22:00:00.370Z,-89
2023-01-11T22:02:29.230Z,-89
2023-01-11T22:04:58.599Z,-89
2023-01-11T22:07:28.362Z,-88
2023-01-11T22:10:04.414Z,-88
2023-01-11T22:12:35.326Z,-88
2023-01-11T22:15:04.341Z,-89
2023-01-11T22:17:32.919Z,-87
2023-01-11T22:20:01.834Z,-88
2023-01-11T22:22:30.798Z,-87
2023-01-11T22:24:59.798Z,-88
2023-01-11T22:27:28.379Z,-88
2023-01-11T22:29:58.394Z,-88
2023-01-11T22:32:27.008Z,-86
2023-01-11T22:34:55.531Z,-86
2023-01-11T22:37:24.156Z,-86
2023-01-11T22:39:52.741Z,-86
2023-01-11T22:42:21.314Z,-86
2023-01-11T22:44:50.218Z,-86
2023-01-11T22:47:20.177Z,-87
2023-01-11T22:49:53.990Z,-86
2023-01-11T22:52:23.330Z,-87
2023-01-11T22:54:51.821Z,-86
2023-01-11T22:57:20.417Z,-87
2023-01-11T22:59:48.966Z,-86
2023-01-11T23:02:17.460Z,-87
2023-01-11T23:04:47.767Z,-86
2023-01-11T23:07:16.267Z,-86
2023-01-11T23:09:45.108Z,-83
2023-01-11T23:12:31.122Z,-86
2023-01-11T23:14:59.656Z,-86
2023-01-11T23:17:28.197Z,-87
2023-01-11T23:19:58.318Z,-85
2023-01-11T23:22:26.830Z,-86
2023-01-11T23:24:55.539Z,-86
2023-01-11T23:27:24.089Z,-86
2023-01-11T23:29:52.577Z,-86
2023-01-11T23:32:21.029Z,-86
2023-01-11T23:34:49.531Z,-86
2023-01-11T23:37:19.637Z,-85
2023-01-11T23:39:48.212Z,-86
2023-01-11T23:42:30.580Z,-88
2023-01-11T23:44:59.951Z,-87
2023-01-11T23:47:29.828Z,-87
2023-01-11T23:50:01.473Z,-87
2023-01-11T23:52:33.580Z,-87
2023-01-11T23:55:02.198Z,-87
2023-01-11T23:57:30.806Z,-86
2023-01-11T23:59:59.281Z,-87
